Time;durP1;ratioP1;P1;durP2;ratioP2;P2;SDS_P1;SDS_P2;PMS_P1;PMS_P2;Temp;Humidity;BMP_temperature;BMP_pressure;BME280_temperature;BME280_humidity;BME280_pressure;Samples;Min_cycle;Max_cycle;Signal;HPM_P1;HPM_P2
2022/05/09 02:21:05;;;;;;;;;;;;;;;;;;;;;
2022/05/09 02:24:28;;;;;;;;;;;;;;;;;;;;;
2022/05/09 02:37:37;;;;;;;;;;;;;;;;;;;;;
2022/05/09 02:44:06;;;;;;;;;;;;;;;;;;;;;
2022/05/09 02:47:25;;;;;;;;;;;;;;;;;;;;;
2022/05/09 02:50:51;;;;;;;;;;;;;;;;;;;;;
2022/05/09 02:53:38;;;;;;;;;;;;;;;;;;;;;
2022/05/09 03:06:16;;;;;;;16.67;10.90;;;13.40;99.90;;;;;;4831945;29;20033;-89
2022/05/09 03:09:32;;;;;;;;;;;;;;;;;;;;;
2022/05/09 03:22:55;;;;;;;;;;;;;;;;;;;;;
2022/05/09 03:29:22;;;;;;;;;;;;;;;;;;;;;
2022/05/09 03:32:41;;;;;;;;;;;;;;;;;;;;;
2022/05/09 03:35:28;;;;;;;;;;;;;;;;;;;;;
2022/05/09 03:41:44;;;;;;;;;;;;;;;;;;;;;
2022/05/09 03:55:24;;;;;;;;;;;;;;;;;;;;;
2022/05/09 05:03:53;;;;;;;;;;;;;;;;;;;;;
2022/05/09 05:06:25;;;;;;;14.50;10.80;;;11.60;99.90;;;;;;4793036;29;20065;-93
2022/05/09 05:19:01;;;;;;;14.93;10.00;;;11.70;99.90;;;;;;4730314;30;20044;-92
2022/05/09 05:22:08;;;;;;;;;;;;;;;;;;;;;
2022/05/09 05:25:03;;;;;;;16.75;10.20;;;11.80;99.90;;;;;;4714485;30;20513;-92
2022/05/09 05:27:44;;;;;;;;;;;;;;;;;;;;;
2022/05/09 05:31:11;;;;;;;16.27;10.80;;;11.80;99.90;;;;;;4797300;29;20061;-93
2022/05/09 05:34:06;;;;;;;;;;;;;;;;;;;;;
2022/05/09 05:36:37;;;;;;;15.73;9.65;;;12.00;99.90;;;;;;4819806;29;20046;-92
2022/05/09 05:39:40;;;;;;;;;;;;;;;;;;;;;
2022/05/09 05:42:39;;;;;;;;;;;;;;;;;;;;;
2022/05/09 05:45:27;;;;;;;23.38;11.98;;;12.30;99.90;;;;;;4811852;29;20031;-93
2022/05/09 05:48:21;;;;;;;17.08;12.43;;;12.40;99.90;;;;;;4893770;29;20040;-93
2022/05/09 05:51:02;;;;;;;;;;;;;;;;;;;;;
2022/05/09 05:54:05;;;;;;;;;;;;;;;;;;;;;
2022/05/09 05:56:52;;;;;;;18.35;12.88;;;13.00;99.90;;;;;;4993939;28;20041;-92
2022/05/09 05:59:33;;;;;;;;;;;;;;;;;;;;;
2022/05/09 06:02:11;;;;;;;;;;;;;;;;;;;;;
2022/05/09 06:04:40;;;;;;;16.90;12.15;;;13.30;99.90;;;;;;4994059;28;20018;-90
2022/05/09 06:08:05;;;;;;;;;;;;;;;;;;;;;
2022/05/09 06:10:49;;;;;;;23.52;12.43;;;13.60;99.90;;;;;;4994034;28;20021;-92
2022/05/09 06:13:26;;;;;;;26.15;12.52;;;13.60;99.90;;;;;;4992328;28;20030;-92
2022/05/09 06:16:46;;;;;;;23.92;12.80;;;13.80;99.90;;;;;;4992315;28;20030;-92
2022/05/09 06:19:12;;;;;;;18.55;12.55;;;13.80;99.90;;;;;;4983095;28;20034;-92
2022/05/09 06:21:50;;;;;;;;;;;;;;;;;;;;;
2022/05/09 06:24:16;;;;;;;18.42;11.55;;;14.00;99.90;;;;;;4993485;28;20505;-92
2022/05/09 06:27:03;;;;;;;18.48;12.60;;;14.00;99.90;;;;;;4976386;28;20105;-94
2022/05/09 06:29:28;;;;;;;17.60;12.13;;;14.10;99.90;;;;;;4976846;28;20030;-93
2022/05/09 06:32:07;;;;;;;;;;;;;;;;;;;;;
2022/05/09 06:35:03;;;;;;;19.52;12.65;;;14.20;99.90;;;;;;5002381;28;20020;-92
2022/05/09 06:37:36;;;;;;;17.35;12.50;;;14.30;99.90;;;;;;4987581;28;20073;-91
2022/05/09 06:40:43;;;;;;;;;;;;;;;;;;;;;
2022/05/09 06:43:52;;;;;;;;;;;;;;;;;;;;;
2022/05/09 06:54:22;;;;;;;;;;;;;;;;;;;;;
2022/05/09 06:56:49;;;;;;;19.42;12.63;;;14.90;99.90;;;;;;4835278;29;20052;-91
2022/05/09 06:59:15;;;;;;;18.77;12.18;;;14.80;99.90;;;;;;4885181;29;20081;-89
2022/05/09 07:01:42;;;;;;;18.48;12.73;;;15.00;99.90;;;;;;4950821;28;20037;-90
2022/05/09 07:04:11;;;;;;;19.00;12.70;;;15.00;99.90;;;;;;4992201;28;20057;-90
2022/05/09 07:06:38;;;;;;;17.67;12.95;;;14.50;99.90;;;;;;4971923;28;20526;-90
2022/05/09 07:09:10;;;;;;;20.60;13.35;;;15.10;99.90;;;;;;4974493;28;20026;-90
2022/05/09 07:11:36;;;;;;;19.50;12.82;;;15.20;99.90;;;;;;4991171;28;20023;-90
2022/05/09 07:14:02;;;;;;;22.55;13.45;;;15.20;99.90;;;;;;4974265;28;20489;-91
2022/05/09 07:16:28;;;;;;;20.23;13.73;;;15.30;99.90;;;;;;4974912;28;20074;-92
2022/05/09 07:18:54;;;;;;;17.85;12.63;;;15.40;99.90;;;;;;4974613;28;20022;-88
2022/05/09 07:21:20;;;;;;;20.27;13.43;;;15.40;99.90;;;;;;4991641;28;20088;-89
2022/05/09 07:23:48;;;;;;;18.85;13.27;;;15.50;99.90;;;;;;4974832;28;20113;-90
2022/05/09 07:26:14;;;;;;;23.83;13.00;;;15.60;99.90;;;;;;4974991;28;20018;-88
2022/05/09 07:28:42;;;;;;;29.83;14.18;;;15.70;99.90;;;;;;4973456;28;20026;-92
2022/05/09 07:31:09;;;;;;;20.83;13.52;;;15.70;99.90;;;;;;4974064;28;20224;-90
2022/05/09 07:33:35;;;;;;;21.13;12.68;;;15.80;99.90;;;;;;4970318;28;20033;-91
2022/05/09 07:36:01;;;;;;;19.08;12.25;;;15.90;99.90;;;;;;4973204;28;20034;-93
2022/05/09 07:38:27;;;;;;;20.90;14.13;;;16.00;99.90;;;;;;4973605;28;20624;-90
2022/05/09 07:40:53;;;;;;;22.08;13.63;;;16.10;99.90;;;;;;4972996;28;20135;-88
2022/05/09 07:43:23;;;;;;;25.83;15.10;;;16.30;99.90;;;;;;4973125;28;20034;-89
2022/05/09 07:45:51;;;;;;;19.63;13.65;;;16.30;99.90;;;;;;4972721;28;20437;-91
2022/05/09 07:48:21;;;;;;;22.33;13.85;;;16.40;99.90;;;;;;4973816;28;20022;-92
2022/05/09 07:50:49;;;;;;;21.25;13.43;;;16.50;99.90;;;;;;4974196;28;20169;-91
2022/05/09 07:53:24;;;;;;;23.67;13.20;;;16.80;99.90;;;;;;4973725;28;20022;-93
2022/05/09 07:55:50;;;;;;;19.10;12.82;;;16.90;99.90;;;;;;4972420;28;20022;-89
2022/05/09 07:58:19;;;;;;;18.80;13.35;;;17.00;99.90;;;;;;4972958;28;20029;-88
2022/05/09 08:00:45;;;;;;;19.58;13.43;;;17.20;99.90;;;;;;4973298;28;20018;-88
2022/05/09 08:03:17;;;;;;;20.67;13.40;;;17.50;99.90;;;;;;4971763;28;20023;-91
2022/05/09 08:05:44;;;;;;;27.60;13.65;;;17.70;99.90;;;;;;4990802;28;20022;-92
2022/05/09 08:08:10;;;;;;;19.35;12.75;;;17.90;99.90;;;;;;4972654;28;20034;-89
2022/05/09 08:10:37;;;;;;;19.88;12.90;;;18.00;99.90;;;;;;4991261;28;20026;-89
2022/05/09 08:13:06;;;;;;;20.70;13.15;;;18.10;99.90;;;;;;4973032;28;20104;-88
2022/05/09 08:15:32;;;;;;;21.17;12.82;;;18.30;99.90;;;;;;4972647;28;20022;-92
2022/05/09 08:17:59;;;;;;;22.83;12.73;;;18.40;99.90;;;;;;4988411;28;20410;-90
2022/05/09 08:20:25;;;;;;;22.30;13.05;;;18.50;99.90;;;;;;4976137;28;20446;-90
2022/05/09 08:23:02;;;;;;;18.40;11.98;;;18.50;99.90;;;;;;4973125;28;20038;-92
2022/05/09 08:25:28;;;;;;;23.05;12.82;;;18.70;99.90;;;;;;4973824;28;20027;-90
2022/05/09 08:27:56;;;;;;;19.45;12.98;;;18.70;99.90;;;;;;4974140;28;20026;-91
2022/05/09 08:30:39;;;;;;;17.58;11.88;;;18.90;99.90;;;;;;4951523;29;20519;-93
2022/05/09 08:33:12;;;;;;;18.45;12.25;;;19.10;99.90;;;;;;4934010;29;20134;-93
2022/05/09 08:35:38;;;;;;;18.67;13.05;;;19.20;99.90;;;;;;4935091;29;20078;-94
2022/05/09 08:38:06;;;;;;;20.63;11.35;;;19.30;99.90;;;;;;4934989;29;20059;-92
2022/05/09 08:40:42;;;;;;;18.15;12.38;;;19.30;99.90;;;;;;4934732;29;20035;-92
2022/05/09 08:43:55;;;;;;;21.35;12.43;;;19.50;99.90;;;;;;4934856;29;20032;-94
2022/05/09 08:46:58;;;;;;;22.33;12.85;;;19.60;99.90;;;;;;4868970;29;20045;-90
2022/05/09 08:49:50;;;;;;;20.02;12.00;;;19.70;99.90;;;;;;4915464;29;20059;-92
2022/05/09 08:52:25;;;;;;;18.27;11.75;;;19.80;99.90;;;;;;4920743;29;20031;-91
2022/05/09 08:54:53;;;;;;;17.08;10.90;;;19.90;99.90;;;;;;4924515;29;20134;-92
2022/05/09 08:57:23;;;;;;;18.98;12.55;;;19.90;99.90;;;;;;4925117;29;20417;-93
2022/05/09 09:00:21;;;;;;;19.80;12.07;;;19.80;99.90;;;;;;4924296;29;20036;-93
2022/05/09 09:02:48;;;;;;;17.80;11.20;;;20.00;99.90;;;;;;4965402;28;20035;-90
2022/05/09 09:05:23;;;;;;;19.17;11.90;;;20.00;99.90;;;;;;4972436;28;20466;-92
2022/05/09 09:08:26;;;;;;;19.52;12.07;;;20.10;99.90;;;;;;4971036;28;20038;-92
2022/05/09 09:11:12;;;;;;;20.60;10.70;;;20.20;99.90;;;;;;4970864;28;20045;-91
2022/05/09 09:14:08;;;;;;;16.25;10.52;;;20.30;99.90;;;;;;4973904;28;20027;-94
2022/05/09 09:16:55;;;;;;;17.10;9.95;;;20.50;99.90;;;;;;4975376;28;20023;-93
2022/05/09 09:19:49;;;;;;;18.35;9.98;;;20.80;99.90;;;;;;4973388;28;20121;-92
2022/05/09 09:22:50;;;;;;;17.98;9.77;;;20.90;99.90;;;;;;4975055;28;20128;-93
2022/05/09 09:25:36;;;;;;;16.58;10.38;;;20.90;99.90;;;;;;4976732;28;20158;-91
2022/05/09 09:28:14;;;;;;;16.65;10.88;;;21.00;99.90;;;;;;4970027;28;20422;-94
2022/05/09 09:30:44;;;;;;;17.00;9.75;;;20.90;99.90;;;;;;4990533;28;20674;-92
2022/05/09 09:33:12;;;;;;;15.13;10.68;;;21.00;99.90;;;;;;4983381;28;20030;-91
2022/05/09 09:35:56;;;;;;;16.42;10.10;;;21.20;99.90;;;;;;4979785;28;20042;-94
2022/05/09 09:38:41;;;;;;;19.08;10.15;;;21.50;99.90;;;;;;4995028;28;20133;-92
2022/05/09 09:41:30;;;;;;;11.85;9.32;;;21.50;99.90;;;;;;4976803;28;20034;-94
2022/05/09 09:44:13;;;;;;;12.88;9.02;;;21.60;99.90;;;;;;4976202;28;20026;-94
2022/05/09 09:47:09;;;;;;;19.70;9.40;;;21.50;99.90;;;;;;4996725;28;20041;-92
2022/05/09 09:49:43;;;;;;;15.10;9.00;;;21.60;99.90;;;;;;4973981;28;20035;-91
2022/05/09 09:59:52;;;;;;;18.77;9.07;;;21.90;99.90;;;;;;4828128;29;20038;-93
2022/05/09 10:03:23;;;;;;;15.85;8.60;;;21.10;99.90;;;;;;4791565;29;20526;-93
2022/05/09 10:30:29;;;;;;;12.27;6.45;;;22.20;99.90;;;;;;4944926;28;20059;-94
2022/05/09 10:37:07;;;;;;;9.25;5.68;;;22.30;99.90;;;;;;4863514;29;20156;-93
2022/05/09 10:40:11;;;;;;;10.30;5.65;;;22.50;98.10;;;;;;4877687;29;20021;-92
2022/05/09 10:43:41;;;;;;;8.57;4.50;;;22.30;96.90;;;;;;4862041;29;20136;-93
2022/05/09 10:50:10;;;;;;;;;;;;;;;;;;;;;
2022/05/09 10:53:17;;;;;;;13.30;6.05;;;22.70;99.90;;;;;;4812429;29;20053;-94
2022/05/09 10:56:14;;;;;;;;;;;;;;;;;;;;;
2022/05/09 10:58:45;;;;;;;10.85;4.82;;;22.50;90.70;;;;;;4858157;29;20044;-92
2022/05/09 11:01:42;;;;;;;12.20;5.13;;;22.50;97.30;;;;;;4855476;29;20237;-94
2022/05/09 11:04:30;;;;;;;10.13;4.97;;;22.80;91.10;;;;;;4846639;29;20433;-90
2022/05/09 11:06:55;;;;;;;6.57;4.75;;;22.70;92.40;;;;;;4890761;29;20567;-92
2022/05/09 11:09:32;;;;;;;8.45;4.43;;;22.70;95.10;;;;;;4933379;29;20032;-93
2022/05/09 11:12:24;;;;;;;6.68;4.82;;;22.80;93.30;;;;;;4945766;29;20046;-92
2022/05/09 11:15:00;;;;;;;13.98;4.53;;;23.00;90.80;;;;;;4936459;29;20031;-90
2022/05/09 11:17:41;;;;;;;7.88;4.78;;;23.00;92.60;;;;;;4952424;29;20051;-93
2022/05/09 11:20:41;;;;;;;8.77;4.10;;;22.90;90.30;;;;;;4954932;29;20023;-94
2022/05/09 11:23:41;;;;;;;6.43;4.80;;;22.90;92.60;;;;;;4939801;29;20086;-93
2022/05/09 11:27:02;;;;;;;10.75;6.35;;;23.10;91.40;;;;;;4940519;29;20035;-92
2022/05/09 11:30:04;;;;;;;9.10;4.88;;;24.40;89.50;;;;;;4870482;29;20060;-91
2022/05/09 11:33:33;;;;;;;11.25;4.97;;;23.20;92.00;;;;;;4926956;29;20058;-91
2022/05/09 11:36:25;;;;;;;8.82;4.60;;;23.40;94.80;;;;;;4883110;29;20504;-94
2022/05/09 11:39:16;;;;;;;6.75;4.30;;;23.40;92.60;;;;;;4924434;29;20127;-90
2022/05/09 11:43:27;;;;;;;8.55;3.20;;;23.40;93.30;;;;;;4924194;29;20512;-92
2022/05/09 11:44:54;;;;;;;5.28;3.28;;;23.40;72.70;;;;;;4923715;29;20028;-91
2022/05/09 11:47:52;;;;;;;6.03;3.38;;;23.40;80.40;;;;;;4921797;29;20024;-93
2022/05/09 11:50:41;;;;;;;9.32;4.05;;;23.30;72.60;;;;;;4926292;29;20032;-89
2022/05/09 11:53:08;;;;;;;8.90;3.90;;;23.10;83.40;;;;;;4930481;29;20031;-90
2022/05/09 11:55:36;;;;;;;7.47;4.55;;;23.10;88.60;;;;;;4926882;29;20453;-91
2022/05/09 11:58:03;;;;;;;6.32;3.45;;;23.20;78.20;;;;;;4929298;29;20040;-90
2022/05/09 12:00:43;;;;;;;5.32;2.92;;;23.20;72.20;;;;;;4937958;29;20495;-90
2022/05/09 12:03:10;;;;;;;7.20;3.17;;;23.30;81.30;;;;;;4939419;29;20030;-91
2022/05/09 12:05:39;;;;;;;5.95;3.75;;;23.40;75.30;;;;;;4945690;29;20028;-90
2022/05/09 12:08:12;;;;;;;6.20;3.28;;;23.50;72.50;;;;;;4958900;29;20020;-89
2022/05/09 12:10:40;;;;;;;5.80;3.03;;;23.70;84.00;;;;;;4950591;29;20056;-90
2022/05/09 12:13:26;;;;;;;7.40;3.15;;;23.80;85.80;;;;;;4939098;29;20527;-91
2022/05/09 12:16:01;;;;;;;6.70;3.35;;;23.90;85.60;;;;;;4925203;29;20040;-89
2022/05/09 12:18:58;;;;;;;6.85;3.42;;;23.90;79.40;;;;;;4926939;29;20032;-91
2022/05/09 12:21:30;;;;;;;4.60;3.10;;;23.70;72.80;;;;;;4923489;29;20024;-89
2022/05/09 12:24:14;;;;;;;4.97;2.92;;;23.60;77.50;;;;;;4922817;29;20040;-90
2022/05/09 12:26:44;;;;;;;6.43;3.30;;;23.60;83.10;;;;;;4925120;29;20115;-93
2022/05/09 12:29:17;;;;;;;6.15;3.15;;;23.50;70.70;;;;;;4939769;29;20035;-90
2022/05/09 12:31:53;;;;;;;5.20;3.45;;;23.60;79.30;;;;;;4940049;28;20059;-91
2022/05/09 12:34:25;;;;;;;7.55;3.35;;;23.60;75.80;;;;;;4940945;29;20036;-90
2022/05/09 12:36:51;;;;;;;4.60;3.25;;;23.60;72.20;;;;;;4939970;29;20039;-90
2022/05/09 12:39:25;;;;;;;3.97;3.10;;;23.40;73.60;;;;;;4944601;29;20029;-92
2022/05/09 12:41:56;;;;;;;6.72;3.10;;;23.40;70.70;;;;;;4943740;29;20034;-90
2022/05/09 12:44:48;;;;;;;5.22;3.00;;;23.60;60.90;;;;;;4945865;29;20036;-90
2022/05/09 12:47:29;;;;;;;6.85;3.28;;;23.60;71.30;;;;;;4952693;28;20063;-93
2022/05/09 12:49:59;;;;;;;4.45;3.08;;;23.70;72.80;;;;;;4954609;29;20058;-91
2022/05/09 12:52:32;;;;;;;3.55;2.80;;;23.80;70.20;;;;;;4955756;29;20023;-94
2022/05/09 12:57:44;;;;;;;8.37;2.93;;;24.00;62.20;;;;;;4962559;28;20050;-93
2022/05/09 13:00:18;;;;;;;6.95;2.90;;;24.00;68.40;;;;;;4956348;28;20027;-94
2022/05/09 13:02:46;;;;;;;4.15;2.67;;;23.90;67.40;;;;;;4957476;29;20031;-93
2022/05/09 13:05:31;;;;;;;5.40;2.88;;;23.90;70.80;;;;;;4949754;28;20071;-92
2022/05/09 13:08:02;;;;;;;4.32;2.70;;;24.00;69.10;;;;;;4963354;28;20031;-91
2022/05/09 13:10:30;;;;;;;5.75;2.80;;;23.80;65.90;;;;;;4953015;28;20055;-90
2022/05/09 13:13:01;;;;;;;;;;;23.80;63.00;;;;;;4945313;28;20500;-91
2022/05/09 13:15:45;;;;;;;;;;;;;;;;;;;;;
2022/05/09 13:18:51;;;;;;;5.95;2.90;;;23.50;65.70;;;;;;4940023;29;20204;-93
2022/05/09 13:21:27;;;;;;;6.15;3.10;;;23.70;70.60;;;;;;4935538;29;20047;-94
2022/05/09 13:24:33;;;;;;;8.05;3.45;;;24.30;65.60;;;;;;4934477;29;20030;-94
2022/05/09 13:27:03;;;;;;;7.45;3.33;;;24.90;64.00;;;;;;4920482;29;20051;-93
2022/05/09 13:29:37;;;;;;;7.10;3.30;;;24.60;64.10;;;;;;4917597;29;20420;-93
2022/05/09 13:32:04;;;;;;;4.68;3.00;;;24.40;55.20;;;;;;4917117;29;20401;-93
2022/05/09 13:34:35;;;;;;;8.43;3.00;;;24.00;61.60;;;;;;4917069;29;20026;-93
2022/05/09 13:37:04;;;;;;;6.70;2.85;;;24.00;66.30;;;;;;4917335;29;20036;-93
2022/05/09 13:39:36;;;;;;;5.53;2.92;;;24.20;66.50;;;;;;4918868;29;20035;-93
2022/05/09 13:42:27;;;;;;;6.38;3.17;;;24.60;65.90;;;;;;4918311;29;20099;-90
2022/05/09 13:44:55;;;;;;;6.38;2.88;;;24.20;64.80;;;;;;4908840;29;20131;-91
2022/05/09 13:47:24;;;;;;;6.53;3.20;;;24.20;66.20;;;;;;4917587;29;20484;-92
2022/05/09 13:49:53;;;;;;;6.60;3.00;;;24.30;65.50;;;;;;4916963;29;20025;-90
2022/05/09 13:52:29;;;;;;;6.88;3.17;;;24.20;58.20;;;;;;4916891;29;20127;-91
2022/05/09 13:54:58;;;;;;;7.88;2.90;;;24.20;59.60;;;;;;4916190;29;20028;-92
2022/05/09 13:57:25;;;;;;;4.65;2.88;;;24.20;61.10;;;;;;4915968;29;20036;-92
2022/05/09 13:59:56;;;;;;;3.90;2.70;;;24.40;65.00;;;;;;4916966;29;20028;-94
2022/05/09 14:02:24;;;;;;;6.90;2.97;;;24.60;64.40;;;;;;4931709;29;20492;-95
2022/05/09 14:05:18;;;;;;;16.75;3.20;;;24.80;58.10;;;;;;4924657;29;20056;-92
2022/05/09 14:07:54;;;;;;;3.22;2.53;;;25.00;63.50;;;;;;4927865;29;20034;-93
2022/05/09 14:10:36;;;;;;;7.40;2.80;;;25.00;64.10;;;;;;4927124;29;20033;-93
2022/05/09 14:13:33;;;;;;;3.97;2.80;;;24.80;57.10;;;;;;4927724;29;20027;-93
2022/05/09 14:16:05;;;;;;;8.25;2.90;;;24.50;55.40;;;;;;4923111;29;20088;-94
2022/05/09 14:19:00;;;;;;;5.13;3.08;;;24.30;56.90;;;;;;4926390;29;20032;-95
2022/05/09 14:21:52;;;;;;;;;;;;;;;;;;;;;
2022/05/09 14:31:03;;;;;;;;;;;;;;;;;;;;;
2022/05/09 14:36:44;;;;;;;5.63;3.15;;;23.90;63.20;;;;;;4950718;28;20124;-92
2022/05/09 14:43:06;;;;;;;;;;;;;;;;;;;;;
2022/05/09 14:45:40;;;;;;;4.70;3.17;;;24.80;57.20;;;;;;4965596;28;20019;-95
2022/05/09 14:48:13;;;;;;;11.05;3.55;;;24.70;61.50;;;;;;4956298;28;20478;-94
2022/05/09 14:51:17;;;;;;;;;;;;;;;;;;;;;
2022/05/09 14:54:01;;;;;;;5.45;3.05;;;25.20;53.10;;;;;;4968971;28;20173;-94
2022/05/09 14:59:41;;;;;;;;;;;;;;;;;;;;;
2022/05/09 15:02:33;;;;;;;4.50;3.15;;;25.20;57.90;;;;;;4965661;28;20061;-92
2022/05/09 15:05:05;;;;;;;10.77;2.90;;;25.40;52.70;;;;;;4940428;29;20091;-94
2022/05/09 15:07:39;;;;;;;5.57;2.90;;;25.40;57.30;;;;;;4946753;28;20031;-93
2022/05/09 15:17:44;;;;;;;4.93;2.90;;;25.20;56.30;;;;;;4936629;28;20051;-92
2022/05/09 15:31:10;;;;;;;;;;;;;;;;;;;;;
2022/05/09 15:49:56;;;;;;;;;;;;;;;;;;;;;
2022/05/09 15:56:53;;;;;;;;;;;;;;;;;;;;;
2022/05/09 15:59:10;;;;;;;3.95;2.70;;;25.80;46.10;;;;;;4709290;30;20529;-93
2022/05/09 16:12:29;;;;;;;9.80;3.10;;;25.50;53.30;;;;;;4673978;30;20049;-92
2022/05/09 16:15:48;;;;;;;;;;;;;;;;;;;;;
2022/05/09 16:19:05;;;;;;;;;;;;;;;;;;;;;
2022/05/09 16:21:32;;;;;;;10.63;2.72;;;25.70;50.30;;;;;;4745281;30;20158;-91
2022/05/09 16:24:19;;;;;;;5.93;2.55;;;26.00;51.00;;;;;;4824058;29;20133;-91
2022/05/09 16:34:47;;;;;;;8.48;2.67;;;27.90;50.20;;;;;;4796449;30;20091;-93
2022/05/09 16:37:43;;;;;;;;;;;;;;;;;;;;;
2022/05/09 16:41:12;;;;;;;;;;;;;;;;;;;;;
2022/05/09 16:43:43;;;;;;;3.10;2.47;;;25.40;51.30;;;;;;4811815;29;20287;-90
2022/05/09 16:49:39;;;;;;;7.30;2.60;;;26.70;57.90;;;;;;4815579;29;20030;-92
2022/05/09 16:52:25;;;;;;;5.88;2.90;;;28.00;52.50;;;;;;4808658;29;20095;-91
2022/05/09 16:54:53;;;;;;;6.15;2.72;;;27.60;56.20;;;;;;4819929;29;20046;-92
2022/05/09 16:57:47;;;;;;;6.38;3.28;;;28.20;54.80;;;;;;4811563;29;20034;-93
2022/05/09 17:00:59;;;;;;;6.60;2.75;;;27.40;53.10;;;;;;4811364;29;20031;-92
2022/05/09 17:04:20;;;;;;;13.35;3.40;;;26.30;51.40;;;;;;4792428;29;20034;-93
2022/05/09 17:10:39;;;;;;;7.00;2.73;;;26.40;47.50;;;;;;4822954;29;20134;-94
2022/05/09 17:16:45;;;;;;;10.35;2.80;;;23.80;52.00;;;;;;4891234;29;20040;-91
2022/05/09 17:20:17;;;;;;;;;;;;;;;;;;;;;
2022/05/09 17:33:39;;;;;;;5.57;3.33;;;25.20;53.80;;;;;;4769532;30;20541;-93
2022/05/09 17:56:15;;;;;;;4.93;2.80;;;24.40;52.60;;;;;;4979425;23;20058;-95
2022/05/09 18:03:02;;;;;;;;;;;;;;;;;;;;;
2022/05/09 18:06:23;;;;;;;;;;;;;;;;;;;;;
2022/05/09 18:22:57;;;;;;;6.53;3.42;;;23.90;58.70;;;;;;4720655;30;20208;-94
2022/05/09 18:25:42;;;;;;;5.93;2.97;;;23.30;63.70;;;;;;4779973;29;20043;-94
2022/05/09 18:40:08;;;;;;;;;;;;;;;;;;;;;
2022/05/09 18:43:26;;;;;;;6.55;4.00;;;23.00;63.50;;;;;;4773583;30;20375;-93
2022/05/09 18:45:54;;;;;;;15.55;4.70;;;23.20;69.70;;;;;;4774570;30;20090;-90
2022/05/09 18:48:20;;;;;;;6.47;3.70;;;22.40;69.60;;;;;;4769834;29;20497;-94
2022/05/09 18:53:43;;;;;;;10.25;3.28;;;22.50;67.30;;;;;;4945496;28;20046;-91
2022/05/09 18:59:19;;;;;;;8.00;3.60;;;22.60;68.40;;;;;;4955995;29;20301;-91
2022/05/09 19:01:55;;;;;;;;;;;;;;;;;;;;;
2022/05/09 19:04:57;;;;;;;;;;;;;;;;;;;;;
2022/05/09 19:08:16;;;;;;;9.20;4.13;;;22.20;70.90;;;;;;4935402;29;20042;-92
2022/05/09 19:10:49;;;;;;;7.37;3.83;;;23.20;65.80;;;;;;4939413;29;20032;-91
2022/05/09 19:13:18;;;;;;;6.25;3.60;;;21.80;68.90;;;;;;4924697;29;20020;-89
2022/05/09 19:15:53;;;;;;;10.98;3.85;;;21.70;69.00;;;;;;4920733;29;20084;-89
2022/05/09 19:18:21;;;;;;;8.80;3.75;;;21.70;70.20;;;;;;4915056;29;20047;-90
2022/05/09 19:20:47;;;;;;;8.13;3.28;;;21.60;69.40;;;;;;4923249;29;20020;-89
2022/05/09 19:23:17;;;;;;;5.57;2.88;;;21.40;71.70;;;;;;4921769;29;20035;-92
2022/05/09 19:26:09;;;;;;;8.27;3.00;;;21.30;71.80;;;;;;4920888;29;20032;-91
2022/05/09 19:29:11;;;;;;;7.28;2.75;;;21.20;69.10;;;;;;4925589;29;20036;-94
2022/05/09 19:31:45;;;;;;;5.60;2.90;;;21.00;71.20;;;;;;4925806;29;20038;-91
2022/05/09 19:35:00;;;;;;;6.18;2.55;;;21.10;70.10;;;;;;4920065;29;20489;-91
2022/05/09 19:54:49;;;;;;;11.05;2.90;;;20.20;69.50;;;;;;4624075;31;20094;-91
2022/05/09 20:00:37;;;;;;;;;;;20.10;73.30;;;;;;4686074;30;20042;-93
